sensor_id;sensor_type;location;lat;lon;timestamp;temperature;humidity
54272;DHT22;40184;53.362;5.216;2022-08-06T00:01:46;16.00;99.90
54272;DHT22;40184;53.362;5.216;2022-08-06T00:04:15;16.00;99.90
54272;DHT22;40184;53.362;5.216;2022-08-06T00:06:41;16.00;99.90
54272;DHT22;40184;53.362;5.216;2022-08-06T00:09:06;16.00;99.90
54272;DHT22;40184;53.362;5.216;2022-08-06T00:11:32;15.90;99.90
54272;DHT22;40184;53.362;5.216;2022-08-06T00:13:58;15.90;99.90
54272;DHT22;40184;53.362;5.216;2022-08-06T00:16:23;15.90;99.90
54272;DHT22;40184;53.362;5.216;2022-08-06T00:18:49;15.90;99.90
54272;DHT22;40184;53.362;5.216;2022-08-06T00:21:15;15.90;99.90
54272;DHT22;40184;53.362;5.216;2022-08-06T00:23:40;15.90;99.90
54272;DHT22;40184;53.362;5.216;2022-08-06T00:26:06;15.90;99.90
54272;DHT22;40184;53.362;5.216;2022-08-06T00:28:32;15.80;99.90
54272;DHT22;40184;53.362;5.216;2022-08-06T00:31:02;15.80;99.90
54272;DHT22;40184;53.362;5.216;2022-08-06T00:33:29;15.80;99.90
54272;DHT22;40184;53.362;5.216;2022-08-06T00:35:55;15.80;99.90
54272;DHT22;40184;53.362;5.216;2022-08-06T00:38:21;15.80;99.90
54272;DHT22;40184;53.362;5.216;2022-08-06T00:40:46;15.80;99.90
54272;DHT22;40184;53.362;5.216;2022-08-06T00:43:13;15.80;99.90
54272;DHT22;40184;53.362;5.216;2022-08-06T00:45:38;15.70;99.90
54272;DHT22;40184;53.362;5.216;2022-08-06T00:48:04;15.60;99.90
54272;DHT22;40184;53.362;5.216;2022-08-06T00:50:31;15.70;99.90
54272;DHT22;40184;53.362;5.216;2022-08-06T00:52:57;15.70;99.90
54272;DHT22;40184;53.362;5.216;2022-08-06T00:55:22;15.70;99.90
54272;DHT22;40184;53.362;5.216;2022-08-06T00:57:48;15.70;99.90
54272;DHT22;40184;53.362;5.216;2022-08-06T01:00:14;15.70;99.90
54272;DHT22;40184;53.362;5.216;2022-08-06T01:02:39;15.70;99.90
54272;DHT22;40184;53.362;5.216;2022-08-06T01:05:05;15.60;99.90
54272;DHT22;40184;53.362;5.216;2022-08-06T01:07:31;15.70;99.90
54272;DHT22;40184;53.362;5.216;2022-08-06T01:09:57;15.70;99.90
54272;DHT22;40184;53.362;5.216;2022-08-06T01:12:23;15.70;99.90
54272;DHT22;40184;53.362;5.216;2022-08-06T01:14:49;15.70;99.90
54272;DHT22;40184;53.362;5.216;2022-08-06T01:17:19;15.70;99.90
54272;DHT22;40184;53.362;5.216;2022-08-06T01:19:51;15.70;99.90
54272;DHT22;40184;53.362;5.216;2022-08-06T01:25:23;15.70;99.90
54272;DHT22;40184;53.362;5.216;2022-08-06T01:28:10;15.70;99.90
54272;DHT22;40184;53.362;5.216;2022-08-06T01:30:48;15.70;99.90
54272;DHT22;40184;53.362;5.216;2022-08-06T01:33:27;15.70;99.90
54272;DHT22;40184;53.362;5.216;2022-08-06T01:35:59;15.70;99.90
54272;DHT22;40184;53.362;5.216;2022-08-06T01:38:33;15.60;99.90
54272;DHT22;40184;53.362;5.216;2022-08-06T01:41:04;15.70;99.90
54272;DHT22;40184;53.362;5.216;2022-08-06T01:43:32;15.60;99.90
54272;DHT22;40184;53.362;5.216;2022-08-06T01:46:01;15.60;99.90
54272;DHT22;40184;53.362;5.216;2022-08-06T01:48:28;15.60;99.90
54272;DHT22;40184;53.362;5.216;2022-08-06T01:50:59;15.70;99.90
54272;DHT22;40184;53.362;5.216;2022-08-06T01:53:34;15.70;99.90
54272;DHT22;40184;53.362;5.216;2022-08-06T01:56:02;15.70;99.90
54272;DHT22;40184;53.362;5.216;2022-08-06T01:58:36;15.80;99.90
54272;DHT22;40184;53.362;5.216;2022-08-06T02:01:08;15.80;99.90
54272;DHT22;40184;53.362;5.216;2022-08-06T02:03:42;15.80;99.90
54272;DHT22;40184;53.362;5.216;2022-08-06T02:06:09;15.80;99.90
54272;DHT22;40184;53.362;5.216;2022-08-06T02:08:39;15.80;99.90
54272;DHT22;40184;53.362;5.216;2022-08-06T02:11:07;15.90;99.90
54272;DHT22;40184;53.362;5.216;2022-08-06T02:13:34;15.80;99.90
54272;DHT22;40184;53.362;5.216;2022-08-06T02:16:02;15.80;99.90
54272;DHT22;40184;53.362;5.216;2022-08-06T02:18:31;15.80;99.90
54272;DHT22;40184;53.362;5.216;2022-08-06T02:21:00;15.90;99.90
54272;DHT22;40184;53.362;5.216;2022-08-06T02:23:28;15.90;99.90
54272;DHT22;40184;53.362;5.216;2022-08-06T02:25:55;15.90;99.90
54272;DHT22;40184;53.362;5.216;2022-08-06T02:28:23;15.90;99.90
54272;DHT22;40184;53.362;5.216;2022-08-06T02:30:53;15.80;99.90
54272;DHT22;40184;53.362;5.216;2022-08-06T02:33:19;15.80;99.90
54272;DHT22;40184;53.362;5.216;2022-08-06T02:35:52;15.90;99.90
54272;DHT22;40184;53.362;5.216;2022-08-06T02:38:28;15.90;99.90
54272;DHT22;40184;53.362;5.216;2022-08-06T02:41:00;15.80;99.90
54272;DHT22;40184;53.362;5.216;2022-08-06T02:43:33;15.80;99.90
54272;DHT22;40184;53.362;5.216;2022-08-06T02:46:07;15.80;99.90
54272;DHT22;40184;53.362;5.216;2022-08-06T02:48:54;15.70;99.90
54272;DHT22;40184;53.362;5.216;2022-08-06T02:51:28;15.70;99.90
54272;DHT22;40184;53.362;5.216;2022-08-06T02:54:05;15.70;99.90
54272;DHT22;40184;53.362;5.216;2022-08-06T02:56:32;15.70;99.90
54272;DHT22;40184;53.362;5.216;2022-08-06T02:59:00;15.60;99.90
54272;DHT22;40184;53.362;5.216;2022-08-06T03:01:34;15.60;99.90
54272;DHT22;40184;53.362;5.216;2022-08-06T03:04:01;15.60;99.90
54272;DHT22;40184;53.362;5.216;2022-08-06T03:06:34;15.60;99.90
54272;DHT22;40184;53.362;5.216;2022-08-06T03:09:02;15.60;99.90
54272;DHT22;40184;53.362;5.216;2022-08-06T03:11:34;15.50;99.90
54272;DHT22;40184;53.362;5.216;2022-08-06T03:14:02;15.50;99.90
54272;DHT22;40184;53.362;5.216;2022-08-06T03:16:31;15.40;99.90
54272;DHT22;40184;53.362;5.216;2022-08-06T03:18:59;15.40;99.90
54272;DHT22;40184;53.362;5.216;2022-08-06T03:21:27;15.30;99.90
54272;DHT22;40184;53.362;5.216;2022-08-06T03:23:55;15.30;99.90
54272;DHT22;40184;53.362;5.216;2022-08-06T03:26:22;15.30;99.90
54272;DHT22;40184;53.362;5.216;2022-08-06T03:28:49;15.30;99.90
54272;DHT22;40184;53.362;5.216;2022-08-06T03:31:16;15.30;99.90
54272;DHT22;40184;53.362;5.216;2022-08-06T03:33:42;15.40;99.90
54272;DHT22;40184;53.362;5.216;2022-08-06T03:36:09;15.40;99.90
54272;DHT22;40184;53.362;5.216;2022-08-06T03:38:43;15.40;99.90
54272;DHT22;40184;53.362;5.216;2022-08-06T03:41:10;15.40;99.90
54272;DHT22;40184;53.362;5.216;2022-08-06T03:43:37;15.40;99.90
54272;DHT22;40184;53.362;5.216;2022-08-06T03:46:05;15.40;99.90
54272;DHT22;40184;53.362;5.216;2022-08-06T03:48:39;15.40;99.90
54272;DHT22;40184;53.362;5.216;2022-08-06T03:51:11;15.50;99.90
54272;DHT22;40184;53.362;5.216;2022-08-06T03:53:40;15.50;99.90
54272;DHT22;40184;53.362;5.216;2022-08-06T03:56:07;15.50;99.90
54272;DHT22;40184;53.362;5.216;2022-08-06T03:58:37;15.50;99.90
54272;DHT22;40184;53.362;5.216;2022-08-06T04:01:07;15.50;99.90
54272;DHT22;40184;53.362;5.216;2022-08-06T04:03:35;15.50;99.90
54272;DHT22;40184;53.362;5.216;2022-08-06T04:06:01;15.60;99.90
54272;DHT22;40184;53.362;5.216;2022-08-06T04:08:27;15.70;99.90
54272;DHT22;40184;53.362;5.216;2022-08-06T04:10:54;15.70;99.90
54272;DHT22;40184;53.362;5.216;2022-08-06T04:13:22;15.80;99.90
54272;DHT22;40184;53.362;5.216;2022-08-06T04:15:49;15.70;99.90
54272;DHT22;40184;53.362;5.216;2022-08-06T04:18:18;15.70;99.90
54272;DHT22;40184;53.362;5.216;2022-08-06T04:20:48;15.70;99.90
54272;DHT22;40184;53.362;5.216;2022-08-06T04:23:14;15.80;99.90
54272;DHT22;40184;53.362;5.216;2022-08-06T04:25:43;15.70;99.90
54272;DHT22;40184;53.362;5.216;2022-08-06T04:28:10;15.70;99.90
54272;DHT22;40184;53.362;5.216;2022-08-06T04:30:38;15.70;99.90
54272;DHT22;40184;53.362;5.216;2022-08-06T04:33:09;15.80;99.90
54272;DHT22;40184;53.362;5.216;2022-08-06T04:35:38;15.70;99.90
54272;DHT22;40184;53.362;5.216;2022-08-06T04:38:04;15.70;99.90
54272;DHT22;40184;53.362;5.216;2022-08-06T04:40:30;15.70;99.90
54272;DHT22;40184;53.362;5.216;2022-08-06T04:42:57;15.70;99.90
54272;DHT22;40184;53.362;5.216;2022-08-06T04:45:23;15.70;99.90
54272;DHT22;40184;53.362;5.216;2022-08-06T04:47:50;15.70;99.90
54272;DHT22;40184;53.362;5.216;2022-08-06T04:50:16;15.70;99.90
54272;DHT22;40184;53.362;5.216;2022-08-06T04:52:41;15.70;99.90
54272;DHT22;40184;53.362;5.216;2022-08-06T04:55:07;15.60;99.90
54272;DHT22;40184;53.362;5.216;2022-08-06T04:57:33;15.70;99.90
54272;DHT22;40184;53.362;5.216;2022-08-06T04:59:59;15.70;99.90
54272;DHT22;40184;53.362;5.216;2022-08-06T05:02:24;15.70;99.90
54272;DHT22;40184;53.362;5.216;2022-08-06T05:04:51;15.70;99.90
54272;DHT22;40184;53.362;5.216;2022-08-06T05:07:29;15.70;99.90
54272;DHT22;40184;53.362;5.216;2022-08-06T05:09:57;15.70;99.90
54272;DHT22;40184;53.362;5.216;2022-08-06T05:12:40;15.70;99.90
54272;DHT22;40184;53.362;5.216;2022-08-06T05:15:26;15.70;99.90
54272;DHT22;40184;53.362;5.216;2022-08-06T05:18:00;15.80;99.90
54272;DHT22;40184;53.362;5.216;2022-08-06T05:20:29;15.80;99.90
54272;DHT22;40184;53.362;5.216;2022-08-06T05:23:03;15.90;99.90
54272;DHT22;40184;53.362;5.216;2022-08-06T05:25:36;15.90;99.90
54272;DHT22;40184;53.362;5.216;2022-08-06T05:28:02;16.00;99.90
54272;DHT22;40184;53.362;5.216;2022-08-06T05:30:28;16.00;99.90
54272;DHT22;40184;53.362;5.216;2022-08-06T05:32:54;16.10;99.90
54272;DHT22;40184;53.362;5.216;2022-08-06T05:35:20;16.20;99.90
54272;DHT22;40184;53.362;5.216;2022-08-06T05:37:45;16.20;99.90
54272;DHT22;40184;53.362;5.216;2022-08-06T05:40:11;16.20;99.90
54272;DHT22;40184;53.362;5.216;2022-08-06T05:42:37;16.30;99.90
54272;DHT22;40184;53.362;5.216;2022-08-06T05:45:02;16.30;99.90
54272;DHT22;40184;53.362;5.216;2022-08-06T05:47:32;16.30;99.90
54272;DHT22;40184;53.362;5.216;2022-08-06T05:50:12;16.30;99.90
54272;DHT22;40184;53.362;5.216;2022-08-06T05:53:02;16.30;99.90
54272;DHT22;40184;53.362;5.216;2022-08-06T05:55:35;16.30;99.90
54272;DHT22;40184;53.362;5.216;2022-08-06T05:58:10;16.40;99.90
54272;DHT22;40184;53.362;5.216;2022-08-06T06:00:38;16.50;99.90
54272;DHT22;40184;53.362;5.216;2022-08-06T06:03:08;16.50;99.90
54272;DHT22;40184;53.362;5.216;2022-08-06T06:05:38;16.60;99.90
54272;DHT22;40184;53.362;5.216;2022-08-06T06:08:05;16.70;99.90
54272;DHT22;40184;53.362;5.216;2022-08-06T06:10:32;16.80;99.90
54272;DHT22;40184;53.362;5.216;2022-08-06T06:13:00;16.90;99.90
54272;DHT22;40184;53.362;5.216;2022-08-06T06:15:26;17.00;99.90
54272;DHT22;40184;53.362;5.216;2022-08-06T06:18:33;17.10;99.90
54272;DHT22;40184;53.362;5.216;2022-08-06T06:21:22;17.10;99.90
54272;DHT22;40184;53.362;5.216;2022-08-06T06:23:54;17.20;99.90
54272;DHT22;40184;53.362;5.216;2022-08-06T06:26:28;17.20;99.90
54272;DHT22;40184;53.362;5.216;2022-08-06T06:29:13;17.30;99.90
54272;DHT22;40184;53.362;5.216;2022-08-06T06:31:58;17.40;99.90
54272;DHT22;40184;53.362;5.216;2022-08-06T06:34:44;17.40;99.90
54272;DHT22;40184;53.362;5.216;2022-08-06T06:43:15;17.70;99.90
54272;DHT22;40184;53.362;5.216;2022-08-06T06:48:50;17.90;99.90
54272;DHT22;40184;53.362;5.216;2022-08-06T06:51:54;18.00;99.90
54272;DHT22;40184;53.362;5.216;2022-08-06T06:54:19;18.10;99.90
54272;DHT22;40184;53.362;5.216;2022-08-06T06:56:47;18.20;99.90
54272;DHT22;40184;53.362;5.216;2022-08-06T06:59:20;18.30;99.90
54272;DHT22;40184;53.362;5.216;2022-08-06T07:01:47;18.30;99.90
54272;DHT22;40184;53.362;5.216;2022-08-06T07:04:16;18.50;99.90
54272;DHT22;40184;53.362;5.216;2022-08-06T07:06:43;18.50;99.90
54272;DHT22;40184;53.362;5.216;2022-08-06T07:09:23;18.70;99.90
54272;DHT22;40184;53.362;5.216;2022-08-06T07:11:52;18.80;99.90
54272;DHT22;40184;53.362;5.216;2022-08-06T07:14:20;18.80;99.90
54272;DHT22;40184;53.362;5.216;2022-08-06T07:16:48;19.00;99.90
54272;DHT22;40184;53.362;5.216;2022-08-06T07:19:16;19.00;99.90
54272;DHT22;40184;53.362;5.216;2022-08-06T07:21:44;19.20;99.90
54272;DHT22;40184;53.362;5.216;2022-08-06T07:24:12;19.40;99.90
54272;DHT22;40184;53.362;5.216;2022-08-06T07:26:41;19.40;99.90
54272;DHT22;40184;53.362;5.216;2022-08-06T07:29:08;19.30;99.90
54272;DHT22;40184;53.362;5.216;2022-08-06T07:31:36;19.20;99.90
54272;DHT22;40184;53.362;5.216;2022-08-06T07:34:03;19.20;99.90
54272;DHT22;40184;53.362;5.216;2022-08-06T07:36:36;19.10;99.90
54272;DHT22;40184;53.362;5.216;2022-08-06T07:39:05;19.10;99.90
54272;DHT22;40184;53.362;5.216;2022-08-06T07:41:34;19.00;99.90
54272;DHT22;40184;53.362;5.216;2022-08-06T07:44:01;19.10;99.90
54272;DHT22;40184;53.362;5.216;2022-08-06T07:46:44;19.40;99.90
54272;DHT22;40184;53.362;5.216;2022-08-06T07:49:14;19.50;99.90
54272;DHT22;40184;53.362;5.216;2022-08-06T07:51:43;19.60;99.90
54272;DHT22;40184;53.362;5.216;2022-08-06T07:54:11;19.50;99.90
54272;DHT22;40184;53.362;5.216;2022-08-06T07:56:40;19.30;99.90
54272;DHT22;40184;53.362;5.216;2022-08-06T07:59:06;19.00;99.90
54272;DHT22;40184;53.362;5.216;2022-08-06T08:01:34;18.70;99.90
54272;DHT22;40184;53.362;5.216;2022-08-06T08:04:01;18.40;99.90
54272;DHT22;40184;53.362;5.216;2022-08-06T08:06:45;18.20;99.90
54272;DHT22;40184;53.362;5.216;2022-08-06T08:09:18;18.00;99.90
54272;DHT22;40184;53.362;5.216;2022-08-06T08:11:48;17.80;99.90
54272;DHT22;40184;53.362;5.216;2022-08-06T08:14:16;17.80;99.90
54272;DHT22;40184;53.362;5.216;2022-08-06T08:16:43;18.00;99.90
54272;DHT22;40184;53.362;5.216;2022-08-06T08:19:38;18.20;99.90
54272;DHT22;40184;53.362;5.216;2022-08-06T08:22:15;18.40;99.90
54272;DHT22;40184;53.362;5.216;2022-08-06T08:24:46;18.70;99.90
54272;DHT22;40184;53.362;5.216;2022-08-06T08:27:13;18.90;99.90
54272;DHT22;40184;53.362;5.216;2022-08-06T08:29:41;19.20;99.90
54272;DHT22;40184;53.362;5.216;2022-08-06T08:32:08;19.30;99.90
54272;DHT22;40184;53.362;5.216;2022-08-06T08:34:34;19.50;99.90
54272;DHT22;40184;53.362;5.216;2022-08-06T08:37:01;19.60;99.90
54272;DHT22;40184;53.362;5.216;2022-08-06T08:39:26;19.80;99.90
54272;DHT22;40184;53.362;5.216;2022-08-06T08:42:03;19.90;99.90
54272;DHT22;40184;53.362;5.216;2022-08-06T08:44:32;19.90;99.90
54272;DHT22;40184;53.362;5.216;2022-08-06T08:46:59;19.90;99.90
54272;DHT22;40184;53.362;5.216;2022-08-06T08:49:38;19.90;99.90
54272;DHT22;40184;53.362;5.216;2022-08-06T08:52:07;20.00;99.80
54272;DHT22;40184;53.362;5.216;2022-08-06T08:54:35;20.10;99.90
54272;DHT22;40184;53.362;5.216;2022-08-06T08:57:04;20.20;99.60
54272;DHT22;40184;53.362;5.216;2022-08-06T08:59:31;20.30;99.50
54272;DHT22;40184;53.362;5.216;2022-08-06T09:01:58;20.30;99.40
54272;DHT22;40184;53.362;5.216;2022-08-06T09:04:24;20.40;99.40
54272;DHT22;40184;53.362;5.216;2022-08-06T09:06:51;20.50;99.20
54272;DHT22;40184;53.362;5.216;2022-08-06T09:09:17;20.60;99.20
54272;DHT22;40184;53.362;5.216;2022-08-06T09:11:43;20.70;99.40
54272;DHT22;40184;53.362;5.216;2022-08-06T09:14:09;20.80;99.20
54272;DHT22;40184;53.362;5.216;2022-08-06T09:16:36;20.90;99.00
54272;DHT22;40184;53.362;5.216;2022-08-06T09:19:03;21.00;99.00
54272;DHT22;40184;53.362;5.216;2022-08-06T09:21:30;20.90;98.90
54272;DHT22;40184;53.362;5.216;2022-08-06T09:23:56;21.00;98.10
54272;DHT22;40184;53.362;5.216;2022-08-06T09:26:22;21.10;97.80
54272;DHT22;40184;53.362;5.216;2022-08-06T09:28:48;21.10;98.00
54272;DHT22;40184;53.362;5.216;2022-08-06T09:31:18;21.30;97.90
54272;DHT22;40184;53.362;5.216;2022-08-06T09:36:22;21.30;96.60
54272;DHT22;40184;53.362;5.216;2022-08-06T09:38:57;21.30;96.30
54272;DHT22;40184;53.362;5.216;2022-08-06T09:41:24;21.40;96.10
54272;DHT22;40184;53.362;5.216;2022-08-06T09:43:52;21.50;96.20
54272;DHT22;40184;53.362;5.216;2022-08-06T09:49:04;21.40;96.10
54272;DHT22;40184;53.362;5.216;2022-08-06T09:51:30;21.50;96.30
54272;DHT22;40184;53.362;5.216;2022-08-06T09:54:00;21.50;96.50
54272;DHT22;40184;53.362;5.216;2022-08-06T09:56:26;21.60;96.50
54272;DHT22;40184;53.362;5.216;2022-08-06T09:59:06;21.70;96.20
54272;DHT22;40184;53.362;5.216;2022-08-06T10:01:43;21.70;96.20
54272;DHT22;40184;53.362;5.216;2022-08-06T10:04:26;21.60;96.70
54272;DHT22;40184;53.362;5.216;2022-08-06T10:06:56;21.50;96.70
54272;DHT22;40184;53.362;5.216;2022-08-06T10:09:24;21.60;96.60
54272;DHT22;40184;53.362;5.216;2022-08-06T10:11:50;21.40;96.40
54272;DHT22;40184;53.362;5.216;2022-08-06T10:14:26;21.70;96.90
54272;DHT22;40184;53.362;5.216;2022-08-06T10:17:12;21.80;96.70
54272;DHT22;40184;53.362;5.216;2022-08-06T10:19:40;21.80;96.20
54272;DHT22;40184;53.362;5.216;2022-08-06T10:22:15;22.00;96.50
54272;DHT22;40184;53.362;5.216;2022-08-06T10:24:51;22.10;96.10
54272;DHT22;40184;53.362;5.216;2022-08-06T10:27:23;22.10;95.70
54272;DHT22;40184;53.362;5.216;2022-08-06T10:29:56;22.00;95.40
54272;DHT22;40184;53.362;5.216;2022-08-06T10:32:29;22.10;95.80
54272;DHT22;40184;53.362;5.216;2022-08-06T10:34:56;22.10;95.80
54272;DHT22;40184;53.362;5.216;2022-08-06T10:37:23;22.20;95.70
54272;DHT22;40184;53.362;5.216;2022-08-06T10:39:55;22.20;95.70
54272;DHT22;40184;53.362;5.216;2022-08-06T10:42:22;22.20;95.80
54272;DHT22;40184;53.362;5.216;2022-08-06T10:44:49;22.20;95.50
54272;DHT22;40184;53.362;5.216;2022-08-06T10:47:16;22.00;95.30
54272;DHT22;40184;53.362;5.216;2022-08-06T10:49:42;22.00;95.40
54272;DHT22;40184;53.362;5.216;2022-08-06T10:52:10;22.00;95.20
54272;DHT22;40184;53.362;5.216;2022-08-06T10:54:37;21.90;95.00
54272;DHT22;40184;53.362;5.216;2022-08-06T10:57:03;22.10;95.20
54272;DHT22;40184;53.362;5.216;2022-08-06T10:59:28;22.00;95.50
54272;DHT22;40184;53.362;5.216;2022-08-06T11:05:33;22.20;95.50
54272;DHT22;40184;53.362;5.216;2022-08-06T11:07:32;22.40;95.70
54272;DHT22;40184;53.362;5.216;2022-08-06T11:10:15;22.40;95.60
54272;DHT22;40184;53.362;5.216;2022-08-06T11:15:09;22.40;95.10
54272;DHT22;40184;53.362;5.216;2022-08-06T11:17:46;22.50;95.30
54272;DHT22;40184;53.362;5.216;2022-08-06T11:22:57;22.50;95.20
54272;DHT22;40184;53.362;5.216;2022-08-06T11:25:50;22.50;95.10
54272;DHT22;40184;53.362;5.216;2022-08-06T11:28:18;22.40;93.60
54272;DHT22;40184;53.362;5.216;2022-08-06T11:30:49;22.50;94.30
54272;DHT22;40184;53.362;5.216;2022-08-06T11:33:19;22.70;94.50
54272;DHT22;40184;53.362;5.216;2022-08-06T11:35:49;22.60;94.70
54272;DHT22;40184;53.362;5.216;2022-08-06T11:38:55;23.00;94.70
54272;DHT22;40184;53.362;5.216;2022-08-06T11:41:07;22.90;94.10
54272;DHT22;40184;53.362;5.216;2022-08-06T11:44:05;22.70;94.40
54272;DHT22;40184;53.362;5.216;2022-08-06T11:46:41;22.60;94.70
54272;DHT22;40184;53.362;5.216;2022-08-06T11:54:13;22.80;94.30
54272;DHT22;40184;53.362;5.216;2022-08-06T11:59:34;23.00;94.50
54272;DHT22;40184;53.362;5.216;2022-08-06T12:02:02;23.00;95.00
54272;DHT22;40184;53.362;5.216;2022-08-06T12:07:29;23.40;95.20
54272;DHT22;40184;53.362;5.216;2022-08-06T12:12:41;23.40;94.80
54272;DHT22;40184;53.362;5.216;2022-08-06T12:17:39;23.20;93.70
54272;DHT22;40184;53.362;5.216;2022-08-06T12:20:06;23.10;93.30
54272;DHT22;40184;53.362;5.216;2022-08-06T12:22:35;23.50;93.40
54272;DHT22;40184;53.362;5.216;2022-08-06T12:25:05;23.60;93.70
54272;DHT22;40184;53.362;5.216;2022-08-06T12:27:33;23.60;93.60
54272;DHT22;40184;53.362;5.216;2022-08-06T12:30:04;23.60;93.10
54272;DHT22;40184;53.362;5.216;2022-08-06T12:32:32;23.60;93.10
54272;DHT22;40184;53.362;5.216;2022-08-06T12:35:04;23.50;93.00
54272;DHT22;40184;53.362;5.216;2022-08-06T12:37:48;23.50;93.30
54272;DHT22;40184;53.362;5.216;2022-08-06T12:40:16;23.40;93.20
54272;DHT22;40184;53.362;5.216;2022-08-06T12:45:30;23.50;92.90
54272;DHT22;40184;53.362;5.216;2022-08-06T12:48:01;23.40;93.10
54272;DHT22;40184;53.362;5.216;2022-08-06T12:50:29;23.70;92.80
54272;DHT22;40184;53.362;5.216;2022-08-06T12:53:16;23.70;92.30
54272;DHT22;40184;53.362;5.216;2022-08-06T12:55:50;23.50;91.40
54272;DHT22;40184;53.362;5.216;2022-08-06T12:58:18;23.60;92.00
54272;DHT22;40184;53.362;5.216;2022-08-06T13:00:48;23.50;92.20
54272;DHT22;40184;53.362;5.216;2022-08-06T13:03:15;23.50;92.40
54272;DHT22;40184;53.362;5.216;2022-08-06T13:05:43;23.60;92.40
54272;DHT22;40184;53.362;5.216;2022-08-06T13:08:09;23.70;92.40
54272;DHT22;40184;53.362;5.216;2022-08-06T13:10:35;23.60;92.30
54272;DHT22;40184;53.362;5.216;2022-08-06T13:13:03;23.60;92.60
54272;DHT22;40184;53.362;5.216;2022-08-06T13:15:30;23.60;92.90
54272;DHT22;40184;53.362;5.216;2022-08-06T13:18:14;23.60;92.80
54272;DHT22;40184;53.362;5.216;2022-08-06T13:20:49;23.70;92.40
54272;DHT22;40184;53.362;5.216;2022-08-06T13:23:31;23.80;92.30
54272;DHT22;40184;53.362;5.216;2022-08-06T13:25:57;23.70;92.10
54272;DHT22;40184;53.362;5.216;2022-08-06T13:28:24;23.60;92.20
54272;DHT22;40184;53.362;5.216;2022-08-06T13:30:50;23.80;92.60
54272;DHT22;40184;53.362;5.216;2022-08-06T13:33:22;23.90;92.40
54272;DHT22;40184;53.362;5.216;2022-08-06T13:35:51;24.00;92.20
54272;DHT22;40184;53.362;5.216;2022-08-06T13:38:30;23.90;91.90
54272;DHT22;40184;53.362;5.216;2022-08-06T13:40:56;23.90;91.70
54272;DHT22;40184;53.362;5.216;2022-08-06T13:43:36;23.60;91.90
54272;DHT22;40184;53.362;5.216;2022-08-06T13:46:10;23.80;92.50
54272;DHT22;40184;53.362;5.216;2022-08-06T13:48:36;23.70;92.50
54272;DHT22;40184;53.362;5.216;2022-08-06T13:51:02;23.70;93.00
54272;DHT22;40184;53.362;5.216;2022-08-06T13:53:28;23.60;93.00
54272;DHT22;40184;53.362;5.216;2022-08-06T13:55:53;23.30;93.00
54272;DHT22;40184;53.362;5.216;2022-08-06T13:58:19;23.40;93.30
54272;DHT22;40184;53.362;5.216;2022-08-06T14:00:45;23.50;92.90
54272;DHT22;40184;53.362;5.216;2022-08-06T14:03:13;23.80;92.30
54272;DHT22;40184;53.362;5.216;2022-08-06T14:05:38;23.90;91.90
54272;DHT22;40184;53.362;5.216;2022-08-06T14:08:04;24.20;91.90
54272;DHT22;40184;53.362;5.216;2022-08-06T14:10:30;24.30;92.30
54272;DHT22;40184;53.362;5.216;2022-08-06T14:12:55;24.60;91.80
54272;DHT22;40184;53.362;5.216;2022-08-06T14:15:40;24.70;90.80
54272;DHT22;40184;53.362;5.216;2022-08-06T14:18:06;24.10;90.70
54272;DHT22;40184;53.362;5.216;2022-08-06T14:20:31;24.40;91.20
54272;DHT22;40184;53.362;5.216;2022-08-06T14:22:57;24.70;91.50
54272;DHT22;40184;53.362;5.216;2022-08-06T14:25:26;24.30;92.00
54272;DHT22;40184;53.362;5.216;2022-08-06T14:27:53;24.40;92.10
54272;DHT22;40184;53.362;5.216;2022-08-06T14:30:19;24.30;92.30
54272;DHT22;40184;53.362;5.216;2022-08-06T14:32:46;24.80;91.70
54272;DHT22;40184;53.362;5.216;2022-08-06T14:35:11;24.80;91.40
54272;DHT22;40184;53.362;5.216;2022-08-06T14:37:38;25.60;91.40
54272;DHT22;40184;53.362;5.216;2022-08-06T14:40:04;26.00;91.20
54272;DHT22;40184;53.362;5.216;2022-08-06T14:42:30;25.50;91.10
54272;DHT22;40184;53.362;5.216;2022-08-06T14:45:15;26.00;90.70
54272;DHT22;40184;53.362;5.216;2022-08-06T14:47:43;26.50;90.40
54272;DHT22;40184;53.362;5.216;2022-08-06T14:50:09;26.10;90.30
54272;DHT22;40184;53.362;5.216;2022-08-06T14:52:36;26.00;90.70
54272;DHT22;40184;53.362;5.216;2022-08-06T14:55:02;26.40;90.40
54272;DHT22;40184;53.362;5.216;2022-08-06T14:57:28;27.00;90.30
54272;DHT22;40184;53.362;5.216;2022-08-06T14:59:53;27.60;89.90
54272;DHT22;40184;53.362;5.216;2022-08-06T15:02:22;27.50;89.70
54272;DHT22;40184;53.362;5.216;2022-08-06T15:04:49;27.60;90.20
54272;DHT22;40184;53.362;5.216;2022-08-06T15:07:15;26.50;89.40
54272;DHT22;40184;53.362;5.216;2022-08-06T15:09:41;27.10;89.70
54272;DHT22;40184;53.362;5.216;2022-08-06T15:12:07;27.10;88.80
54272;DHT22;40184;53.362;5.216;2022-08-06T15:14:32;27.40;89.30
54272;DHT22;40184;53.362;5.216;2022-08-06T15:17:00;27.70;88.10
54272;DHT22;40184;53.362;5.216;2022-08-06T15:19:25;28.10;87.50
54272;DHT22;40184;53.362;5.216;2022-08-06T15:21:51;28.20;86.60
54272;DHT22;40184;53.362;5.216;2022-08-06T15:24:17;28.50;86.00
54272;DHT22;40184;53.362;5.216;2022-08-06T15:26:43;28.30;85.40
54272;DHT22;40184;53.362;5.216;2022-08-06T15:29:09;28.50;85.90
54272;DHT22;40184;53.362;5.216;2022-08-06T15:31:35;28.80;85.80
54272;DHT22;40184;53.362;5.216;2022-08-06T15:34:00;28.80;85.60
54272;DHT22;40184;53.362;5.216;2022-08-06T15:36:26;29.00;85.50
54272;DHT22;40184;53.362;5.216;2022-08-06T15:38:52;28.90;85.10
54272;DHT22;40184;53.362;5.216;2022-08-06T15:41:19;29.20;84.70
54272;DHT22;40184;53.362;5.216;2022-08-06T15:43:51;29.10;83.70
54272;DHT22;40184;53.362;5.216;2022-08-06T15:46:17;29.10;83.70
54272;DHT22;40184;53.362;5.216;2022-08-06T15:48:43;28.90;84.40
54272;DHT22;40184;53.362;5.216;2022-08-06T15:51:09;28.10;84.90
54272;DHT22;40184;53.362;5.216;2022-08-06T15:53:35;27.90;85.30
54272;DHT22;40184;53.362;5.216;2022-08-06T15:56:00;28.00;85.50
54272;DHT22;40184;53.362;5.216;2022-08-06T15:58:26;28.30;85.40
54272;DHT22;40184;53.362;5.216;2022-08-06T16:00:51;28.70;85.10
54272;DHT22;40184;53.362;5.216;2022-08-06T16:03:17;29.30;84.70
54272;DHT22;40184;53.362;5.216;2022-08-06T16:05:43;29.50;84.10
54272;DHT22;40184;53.362;5.216;2022-08-06T16:08:10;28.90;83.50
54272;DHT22;40184;53.362;5.216;2022-08-06T16:10:43;28.70;84.40
54272;DHT22;40184;53.362;5.216;2022-08-06T16:13:14;28.60;84.80
54272;DHT22;40184;53.362;5.216;2022-08-06T16:15:44;28.70;85.00
54272;DHT22;40184;53.362;5.216;2022-08-06T16:18:10;29.00;84.30
54272;DHT22;40184;53.362;5.216;2022-08-06T16:20:39;29.10;83.50
54272;DHT22;40184;53.362;5.216;2022-08-06T16:23:05;28.50;82.60
54272;DHT22;40184;53.362;5.216;2022-08-06T16:25:31;28.20;83.90
54272;DHT22;40184;53.362;5.216;2022-08-06T16:27:56;28.20;83.10
54272;DHT22;40184;53.362;5.216;2022-08-06T16:30:22;27.90;83.20